createdAt,value
2023-01-05T00:01:09.328Z,9.28
2023-01-05T00:03:36.800Z,9.24
2023-01-05T00:06:15.179Z,9.17
2023-01-05T00:08:42.454Z,9.12
2023-01-05T00:11:35.321Z,9.12
2023-01-05T00:14:20.982Z,9.13
2023-01-05T00:17:06.730Z,9.16
2023-01-05T00:19:52.415Z,9.19
2023-01-05T00:22:30.720Z,9.25
2023-01-05T00:25:02.257Z,9.29
2023-01-05T00:27:34.205Z,9.24
2023-01-05T00:30:01.234Z,9.18
2023-01-05T00:32:28.779Z,9.23
2023-01-05T00:34:56.615Z,9.24
2023-01-05T00:37:25.430Z,9.27
2023-01-05T00:39:52.399Z,9.24
2023-01-05T00:42:19.340Z,9.25
2023-01-05T00:44:46.456Z,9.24
2023-01-05T00:47:13.205Z,9.24
2023-01-05T00:49:40.406Z,9.30
2023-01-05T00:52:07.739Z,9.17
2023-01-05T00:54:34.703Z,9.22
2023-01-05T00:57:01.759Z,9.21
2023-01-05T00:59:28.487Z,9.21
2023-01-05T01:01:55.340Z,9.16
2023-01-05T01:04:22.478Z,9.09
2023-01-05T01:06:49.453Z,9.22
2023-01-05T01:09:16.590Z,9.13
2023-01-05T01:11:43.233Z,9.03
2023-01-05T01:14:12.021Z,9.04
2023-01-05T01:16:38.714Z,9.07
2023-01-05T01:19:05.771Z,9.08
2023-01-05T01:21:32.634Z,9.01
2023-01-05T01:23:59.276Z,8.95
2023-01-05T01:26:25.938Z,8.93
2023-01-05T01:28:52.511Z,8.90
2023-01-05T01:31:19.200Z,8.89
2023-01-05T01:33:45.848Z,8.92
2023-01-05T01:36:12.522Z,8.91
2023-01-05T01:38:39.228Z,8.96
2023-01-05T01:41:05.880Z,8.79
2023-01-05T01:43:58.272Z,8.90
2023-01-05T01:46:27.294Z,8.90
2023-01-05T01:49:01.241Z,8.87
2023-01-05T01:51:37.235Z,8.85
2023-01-05T01:54:09.089Z,8.85
2023-01-05T01:56:42.347Z,8.74
2023-01-05T01:59:09.776Z,8.81
2023-01-05T02:01:36.630Z,8.83
2023-01-05T02:04:05.304Z,8.83
2023-01-05T02:06:31.957Z,8.84
2023-01-05T02:08:58.736Z,8.84
2023-01-05T02:11:48.567Z,8.76
2023-01-05T02:14:50.375Z,8.77
2023-01-05T02:17:26.372Z,8.72
2023-01-05T02:20:11.450Z,8.81
2023-01-05T02:22:46.977Z,8.82
2023-01-05T02:25:32.406Z,8.87
2023-01-05T02:28:10.831Z,8.87
2023-01-05T02:31:01.935Z,8.78
2023-01-05T02:33:43.710Z,8.66
2023-01-05T02:36:34.652Z,8.62
2023-01-05T02:39:25.456Z,8.61
2023-01-05T02:41:59.666Z,8.61
2023-01-05T02:44:29.489Z,8.29
2023-01-05T02:47:26.104Z,8.16
2023-01-05T02:50:03.114Z,8.28
2023-01-05T02:52:55.221Z,8.31
2023-01-05T02:55:30.366Z,8.36
2023-01-05T02:58:04.184Z,8.40
2023-01-05T03:00:38.377Z,8.44
2023-01-05T03:03:23.892Z,8.51
2023-01-05T03:05:56.354Z,8.53
2023-01-05T03:08:32.411Z,8.58
2023-01-05T03:11:27.590Z,8.53
2023-01-05T03:14:16.035Z,8.54
2023-01-05T03:16:45.683Z,8.56
2023-01-05T03:19:33.598Z,8.56
2023-01-05T03:22:24.012Z,8.52
2023-01-05T03:25:09.955Z,8.53
2023-01-05T03:27:56.374Z,8.54
2023-01-05T03:30:51.656Z,8.54
2023-01-05T03:33:54.111Z,8.50
2023-01-05T03:36:24.485Z,8.52
2023-01-05T03:38:53.384Z,8.59
2023-01-05T03:41:23.390Z,8.54
2023-01-05T03:43:51.174Z,8.52
2023-01-05T03:46:20.850Z,8.52
2023-01-05T03:48:48.532Z,8.53
2023-01-05T03:51:16.522Z,8.56
2023-01-05T03:53:43.792Z,8.53
2023-01-05T03:56:10.470Z,8.54
2023-01-05T03:58:37.387Z,8.60
2023-01-05T04:01:04.778Z,8.48
2023-01-05T04:03:32.403Z,8.56
2023-01-05T04:05:59.959Z,8.54
2023-01-05T04:08:26.635Z,8.51
2023-01-05T04:10:54.141Z,8.56
2023-01-05T04:13:21.122Z,8.56
2023-01-05T04:15:47.878Z,8.51
2023-01-05T04:18:14.715Z,8.41
2023-01-05T04:20:42.788Z,8.28
2023-01-05T04:23:09.441Z,8.26
2023-01-05T04:25:36.084Z,8.25
2023-01-05T04:28:02.640Z,8.21
2023-01-05T04:30:29.246Z,8.25
2023-01-05T04:32:56.000Z,8.25
2023-01-05T04:35:22.697Z,8.29
2023-01-05T04:37:49.332Z,8.23
2023-01-05T04:40:16.052Z,8.20
2023-01-05T04:42:42.660Z,8.13
2023-01-05T04:45:10.518Z,8.24
2023-01-05T04:47:37.217Z,8.17
2023-01-05T04:50:04.330Z,8.14
2023-01-05T04:52:31.156Z,8.19
2023-01-05T04:54:57.786Z,8.17
2023-01-05T04:57:24.361Z,8.12
2023-01-05T04:59:50.962Z,7.93
2023-01-05T05:02:17.679Z,8.00
2023-01-05T05:04:44.432Z,7.92
2023-01-05T05:07:11.066Z,7.91
2023-01-05T05:09:37.777Z,7.88
2023-01-05T05:12:04.564Z,7.86
2023-01-05T05:14:31.386Z,7.84
2023-01-05T05:16:58.003Z,7.93
2023-01-05T05:19:24.688Z,7.88
2023-01-05T05:21:51.323Z,7.83
2023-01-05T05:24:18.092Z,7.88
2023-01-05T05:26:44.792Z,7.92
2023-01-05T05:29:11.430Z,7.89
2023-01-05T05:31:38.270Z,7.82
2023-01-05T05:34:04.911Z,7.74
2023-01-05T05:36:31.910Z,7.75
2023-01-05T05:38:58.854Z,7.88
2023-01-05T05:41:25.560Z,7.95
2023-01-05T05:43:52.230Z,7.99
2023-01-05T05:46:19.249Z,7.98
2023-01-05T05:48:45.891Z,7.98
2023-01-05T05:51:12.502Z,8.11
2023-01-05T05:53:39.084Z,8.03
2023-01-05T05:56:06.093Z,8.06
2023-01-05T05:58:32.686Z,8.07
2023-01-05T06:00:59.695Z,8.11
2023-01-05T06:03:26.546Z,8.14
2023-01-05T06:05:53.587Z,8.16
2023-01-05T06:08:21.058Z,8.19
2023-01-05T06:10:49.321Z,8.23
2023-01-05T06:13:16.758Z,8.26
2023-01-05T06:15:43.548Z,8.34
2023-01-05T06:18:11.365Z,8.43
2023-01-05T06:20:38.181Z,8.40
2023-01-05T06:23:04.875Z,8.32
2023-01-05T06:25:31.523Z,8.23
2023-01-05T06:27:58.205Z,8.36
2023-01-05T06:30:24.944Z,8.39
2023-01-05T06:32:51.589Z,8.41
2023-01-05T06:35:18.426Z,8.48
2023-01-05T06:37:45.004Z,8.47
2023-01-05T06:40:12.199Z,8.44
2023-01-05T06:42:39.092Z,8.62
2023-01-05T06:45:06.972Z,8.57
2023-01-05T06:47:33.825Z,8.62
2023-01-05T06:50:00.419Z,8.55
2023-01-05T06:52:27.081Z,8.59
2023-01-05T06:54:53.673Z,8.55
2023-01-05T06:57:20.377Z,8.59
2023-01-05T06:59:47.041Z,8.43
2023-01-05T07:02:15.175Z,8.44
2023-01-05T07:04:42.141Z,8.56
2023-01-05T07:07:12.908Z,8.72
2023-01-05T07:09:40.104Z,8.71
2023-01-05T07:12:06.817Z,8.81
2023-01-05T07:14:33.423Z,8.82
2023-01-05T07:17:00.413Z,8.52
2023-01-05T07:19:27.138Z,8.69
2023-01-05T07:21:56.976Z,8.88
2023-01-05T07:24:24.050Z,8.91
2023-01-05T07:26:50.997Z,8.79
2023-01-05T07:29:17.658Z,8.76
2023-01-05T07:31:44.360Z,8.98
2023-01-05T07:34:11.136Z,9.09
2023-01-05T07:36:37.764Z,9.25
2023-01-05T07:39:04.517Z,8.98
2023-01-05T07:41:31.130Z,9.13
2023-01-05T07:43:58.022Z,9.23
2023-01-05T07:46:24.741Z,9.18
2023-01-05T07:48:51.390Z,9.54
2023-01-05T07:51:18.300Z,9.65
2023-01-05T07:53:44.992Z,9.57
2023-01-05T07:56:12.981Z,9.79
2023-01-05T07:58:40.422Z,9.96
2023-01-05T08:01:13.922Z,10.09
2023-01-05T08:03:40.919Z,10.47
2023-01-05T08:06:12.918Z,10.88
2023-01-05T08:08:40.202Z,11.07
2023-01-05T08:11:08.577Z,11.20
2023-01-05T08:13:54.330Z,11.16
2023-01-05T08:16:21.138Z,11.19
2023-01-05T08:18:48.188Z,11.31
2023-01-05T08:21:14.822Z,11.51
2023-01-05T08:23:41.444Z,11.63
2023-01-05T08:26:12.431Z,12.23
2023-01-05T08:28:39.499Z,12.58
2023-01-05T08:31:10.355Z,12.99
2023-01-05T08:33:36.958Z,12.94
2023-01-05T08:36:09.225Z,13.22
2023-01-05T08:38:36.195Z,13.38
2023-01-05T08:41:02.835Z,13.77
2023-01-05T08:43:29.566Z,14.15
2023-01-05T08:45:56.454Z,14.17
2023-01-05T08:48:23.194Z,14.16
2023-01-05T08:50:49.894Z,14.33
2023-01-05T08:53:16.558Z,14.68
2023-01-05T08:55:43.169Z,14.71
2023-01-05T08:58:09.798Z,14.96
2023-01-05T09:00:36.532Z,15.49
2023-01-05T09:03:03.528Z,16.06
2023-01-05T09:05:30.256Z,16.44
2023-01-05T09:07:56.866Z,16.57
2023-01-05T09:10:23.471Z,16.71
2023-01-05T09:12:50.135Z,16.57
2023-01-05T09:15:16.849Z,16.60
2023-01-05T09:17:43.664Z,15.82
2023-01-05T09:20:10.866Z,15.65
2023-01-05T09:22:37.565Z,15.87
2023-01-05T09:25:04.854Z,15.55
2023-01-05T09:27:31.574Z,16.39
2023-01-05T09:29:58.215Z,16.89
2023-01-05T09:32:24.981Z,17.67
2023-01-05T09:34:51.617Z,17.71
2023-01-05T09:37:18.283Z,16.68
2023-01-05T09:39:44.989Z,17.12
2023-01-05T09:42:17.371Z,17.14
2023-01-05T09:44:58.363Z,17.23
2023-01-05T09:47:42.198Z,17.75
2023-01-05T09:50:20.275Z,16.12
2023-01-05T09:52:48.482Z,16.41
2023-01-05T09:55:19.630Z,16.20
2023-01-05T09:58:05.292Z,16.34
2023-01-05T10:00:33.325Z,16.47
2023-01-05T10:03:04.140Z,16.73
2023-01-05T10:05:41.858Z,17.00
2023-01-05T10:08:18.841Z,17.23
2023-01-05T10:11:13.238Z,17.51
2023-01-05T10:13:50.308Z,17.42
2023-01-05T10:16:17.822Z,16.95
2023-01-05T10:18:45.692Z,17.39
2023-01-05T10:21:30.907Z,16.91
2023-01-05T10:24:22.975Z,17.49
2023-01-05T10:27:24.268Z,18.03
2023-01-05T10:29:53.815Z,17.26
2023-01-05T10:32:49.229Z,16.91
2023-01-05T10:38:49.163Z,18.91
2023-01-05T10:41:44.281Z,18.90
2023-01-05T10:44:22.893Z,18.85
2023-01-05T10:46:52.567Z,17.10
2023-01-05T10:49:31.271Z,16.97
2023-01-05T10:51:59.905Z,17.20
2023-01-05T10:54:49.151Z,16.41
2023-01-05T10:57:36.512Z,16.48
2023-01-05T11:00:06.801Z,15.71
2023-01-05T11:02:36.701Z,16.23
2023-01-05T11:05:16.468Z,17.26
2023-01-05T11:07:53.346Z,16.67
2023-01-05T11:10:31.269Z,16.96
2023-01-05T11:13:33.323Z,17.13
2023-01-05T11:16:02.413Z,16.29
2023-01-05T11:19:12.693Z,16.19
2023-01-05T11:21:41.622Z,15.83
2023-01-05T11:24:33.514Z,16.71
2023-01-05T11:27:25.078Z,17.11
2023-01-05T11:30:14.686Z,17.09
2023-01-05T11:32:43.057Z,17.49
2023-01-05T11:35:32.837Z,16.96
2023-01-05T11:38:00.541Z,16.84
2023-01-05T11:40:31.220Z,17.10
2023-01-05T11:42:59.867Z,17.86
2023-01-05T11:45:38.034Z,18.85
2023-01-05T11:48:08.885Z,19.52
2023-01-05T11:50:53.416Z,18.83
2023-01-05T11:53:46.182Z,18.80
2023-01-05T11:56:21.383Z,18.66
2023-01-05T11:58:50.049Z,18.13
2023-01-05T12:01:42.080Z,17.38
2023-01-05T12:04:24.049Z,17.98
2023-01-05T12:07:17.686Z,17.98
2023-01-05T12:09:58.700Z,16.85
2023-01-05T12:12:39.290Z,17.33
2023-01-05T12:15:11.591Z,18.41
2023-01-05T12:17:59.883Z,19.27
2023-01-05T12:20:52.888Z,19.01
2023-01-05T12:23:37.719Z,18.64
2023-01-05T12:26:13.533Z,19.88
2023-01-05T12:35:05.295Z,19.30
2023-01-05T12:37:58.551Z,19.61
2023-01-05T12:40:53.157Z,20.45
2023-01-05T12:43:47.124Z,19.94
2023-01-05T12:46:31.897Z,19.64
2023-01-05T12:49:02.802Z,19.50
2023-01-05T12:51:42.829Z,19.29
2023-01-05T12:54:31.495Z,18.75
2023-01-05T12:57:05.318Z,18.91
2023-01-05T12:59:52.850Z,19.15
2023-01-05T13:02:26.596Z,20.22
2023-01-05T13:05:02.628Z,20.66
2023-01-05T13:07:50.348Z,21.49
2023-01-05T13:10:33.575Z,20.93
2023-01-05T13:13:06.506Z,20.07
2023-01-05T13:15:41.635Z,18.01
2023-01-05T13:18:18.560Z,17.50
2023-01-05T13:20:55.694Z,17.96
2023-01-05T13:23:30.065Z,18.48
2023-01-05T13:26:01.547Z,18.54
2023-01-05T13:28:30.816Z,18.81
2023-01-05T13:31:29.663Z,19.26
2023-01-05T13:33:58.978Z,18.74
2023-01-05T13:36:37.647Z,17.72
2023-01-05T13:39:20.051Z,17.54
2023-01-05T13:42:25.560Z,16.77
2023-01-05T13:45:14.572Z,16.15
2023-01-05T13:47:47.436Z,15.72
2023-01-05T13:50:31.132Z,15.22
2023-01-05T13:53:15.993Z,14.70
2023-01-05T13:56:05.130Z,14.16
2023-01-05T13:58:40.653Z,14.24
2023-01-05T14:01:34.383Z,14.01
2023-01-05T14:04:01.500Z,13.87
2023-01-05T14:06:31.678Z,13.92
2023-01-05T14:09:00.759Z,13.93
2023-01-05T14:11:28.655Z,13.79
2023-01-05T14:13:59.676Z,13.69
2023-01-05T14:16:35.676Z,13.55
2023-01-05T14:19:13.562Z,13.40
2023-01-05T14:21:49.401Z,13.37
2023-01-05T14:24:47.822Z,13.33
2023-01-05T14:27:16.129Z,13.13
2023-01-05T14:29:48.234Z,12.97
2023-01-05T14:32:19.661Z,12.99
2023-01-05T14:34:49.273Z,12.99
2023-01-05T14:37:27.459Z,12.91
2023-01-05T14:40:00.425Z,12.91
2023-01-05T14:42:39.797Z,12.81
2023-01-05T14:45:12.263Z,12.57
2023-01-05T14:47:43.993Z,12.55
2023-01-05T14:50:33.653Z,12.45
2023-01-05T14:53:03.379Z,12.38
2023-01-05T14:55:38.765Z,12.27
2023-01-05T14:58:38.043Z,12.02
2023-01-05T15:01:21.151Z,11.91
2023-01-05T15:04:06.195Z,11.81
2023-01-05T15:06:50.866Z,11.65
2023-01-05T15:09:41.455Z,11.46
2023-01-05T15:12:17.142Z,11.27
2023-01-05T15:15:04.068Z,11.19
2023-01-05T15:17:48.160Z,11.08
2023-01-05T15:20:38.645Z,10.96
2023-01-05T15:23:23.971Z,10.90
2023-01-05T15:26:12.331Z,10.59
2023-01-05T15:28:39.523Z,10.60
2023-01-05T15:31:30.419Z,10.46
2023-01-05T15:34:17.728Z,10.34
2023-01-05T15:36:53.291Z,10.31
2023-01-05T15:39:31.105Z,10.11
2023-01-05T15:42:01.922Z,10.00
2023-01-05T15:44:34.185Z,9.91
2023-01-05T15:47:02.380Z,9.86
2023-01-05T15:49:32.589Z,9.78
2023-01-05T15:51:59.492Z,9.65
2023-01-05T15:54:31.672Z,9.54
2023-01-05T15:57:00.784Z,9.41
2023-01-05T15:59:30.398Z,9.35
2023-01-05T16:01:57.541Z,9.35
2023-01-05T16:04:24.693Z,9.30
2023-01-05T16:07:05.400Z,9.23
2023-01-05T16:09:38.654Z,9.22
2023-01-05T16:12:23.343Z,9.17
2023-01-05T16:15:01.350Z,9.16
2023-01-05T16:17:31.663Z,9.03
2023-01-05T16:20:03.467Z,9.06
2023-01-05T16:22:45.687Z,9.05
2023-01-05T16:25:15.283Z,8.96
2023-01-05T16:27:44.756Z,8.95
2023-01-05T16:30:14.676Z,8.90
2023-01-05T16:32:42.618Z,8.83
2023-01-05T16:35:39.840Z,8.75
2023-01-05T16:38:13.008Z,8.71
2023-01-05T16:40:49.647Z,8.73
2023-01-05T16:43:32.590Z,8.70
2023-01-05T16:46:20.974Z,8.79
2023-01-05T16:48:51.412Z,8.71
2023-01-05T16:51:20.916Z,8.62
2023-01-05T16:53:57.126Z,8.70
2023-01-05T16:56:32.999Z,8.65
2023-01-05T16:59:01.064Z,8.64
2023-01-05T17:01:35.978Z,8.48
2023-01-05T17:04:16.640Z,8.45
2023-01-05T17:06:49.548Z,8.39
2023-01-05T17:09:25.862Z,8.40
2023-01-05T17:11:53.218Z,8.34
2023-01-05T17:14:21.674Z,8.32
2023-01-05T17:16:48.586Z,8.23
2023-01-05T17:19:17.823Z,8.27
2023-01-05T17:21:50.744Z,8.27
2023-01-05T17:24:17.476Z,8.21
2023-01-05T17:26:45.432Z,8.18
2023-01-05T17:29:32.586Z,8.15
2023-01-05T17:31:59.390Z,8.24
2023-01-05T17:34:26.329Z,8.20
2023-01-05T17:36:55.991Z,8.22
2023-01-05T17:39:23.022Z,8.28
2023-01-05T17:41:49.807Z,8.30
2023-01-05T17:44:17.244Z,8.36
2023-01-05T17:46:45.818Z,8.26
2023-01-05T17:49:17.597Z,8.06
2023-01-05T17:51:44.349Z,8.00
2023-01-05T17:54:12.096Z,8.05
2023-01-05T17:56:39.076Z,8.13
2023-01-05T17:59:06.479Z,8.26
2023-01-05T18:01:36.555Z,8.22
2023-01-05T18:04:03.310Z,8.34
2023-01-05T18:06:30.167Z,8.30
2023-01-05T18:08:57.308Z,8.20
2023-01-05T18:11:23.960Z,8.16
2023-01-05T18:13:50.516Z,8.11
2023-01-05T18:16:17.185Z,8.25
2023-01-05T18:18:43.969Z,8.21
2023-01-05T18:21:10.611Z,8.21
2023-01-05T18:23:37.248Z,8.11
2023-01-05T18:26:08.407Z,8.16
2023-01-05T18:28:35.964Z,8.00
2023-01-05T18:31:12.905Z,7.89
2023-01-05T18:33:39.603Z,8.03
2023-01-05T18:36:13.713Z,8.16
2023-01-05T18:38:41.565Z,8.20
2023-01-05T18:41:08.565Z,8.31
2023-01-05T18:43:35.598Z,8.40
2023-01-05T18:46:02.814Z,8.41
2023-01-05T18:48:30.026Z,8.37
2023-01-05T18:50:58.599Z,8.42
2023-01-05T18:53:25.532Z,8.37
2023-01-05T18:55:52.389Z,8.40
2023-01-05T18:58:19.066Z,8.30
2023-01-05T19:00:46.664Z,8.23
2023-01-05T19:03:13.835Z,8.18
2023-01-05T19:05:42.708Z,8.05
2023-01-05T19:08:11.165Z,8.00
2023-01-05T19:10:38.318Z,7.94
2023-01-05T19:13:05.279Z,7.89
2023-01-05T19:15:36.655Z,7.88
2023-01-05T19:18:03.609Z,7.82
2023-01-05T19:20:31.810Z,7.78
2023-01-05T19:23:00.030Z,7.81
2023-01-05T19:25:26.697Z,7.84
2023-01-05T19:27:53.414Z,7.79
2023-01-05T19:30:22.121Z,7.82
2023-01-05T19:32:48.876Z,7.78
2023-01-05T19:35:15.855Z,7.75
2023-01-05T19:37:42.579Z,7.76
2023-01-05T19:40:10.559Z,7.83
2023-01-05T19:42:37.426Z,7.81
2023-01-05T19:45:04.374Z,8.01
2023-01-05T19:47:31.117Z,8.02
2023-01-05T19:49:57.736Z,8.04
2023-01-05T19:52:29.672Z,8.10
2023-01-05T19:54:56.622Z,8.17
2023-01-05T19:57:23.730Z,8.14
2023-01-05T19:59:51.427Z,8.12
2023-01-05T20:02:18.335Z,8.05
2023-01-05T20:04:46.703Z,8.05
2023-01-05T20:07:13.787Z,8.09
2023-01-05T20:09:41.152Z,8.03
2023-01-05T20:12:14.709Z,7.98
2023-01-05T20:14:42.268Z,8.05
2023-01-05T20:17:10.538Z,8.01
2023-01-05T20:19:38.762Z,7.90
2023-01-05T20:22:07.597Z,7.94
2023-01-05T20:24:36.885Z,7.92
2023-01-05T20:27:06.836Z,7.94
2023-01-05T20:29:33.872Z,7.93
2023-01-05T20:32:12.627Z,7.89
2023-01-05T20:34:40.495Z,7.79
2023-01-05T20:37:09.482Z,7.76
2023-01-05T20:39:37.729Z,7.67
2023-01-05T20:42:08.079Z,7.69
2023-01-05T20:44:37.452Z,7.66
2023-01-05T20:47:05.823Z,7.60
2023-01-05T20:49:34.921Z,7.56
2023-01-05T20:52:01.659Z,7.49
2023-01-05T20:54:28.417Z,7.46
2023-01-05T20:56:55.158Z,7.45
2023-01-05T20:59:24.895Z,7.52
2023-01-05T21:01:52.195Z,7.52
2023-01-05T21:04:20.285Z,7.50
2023-01-05T21:06:47.904Z,7.45
2023-01-05T21:09:14.933Z,7.51
2023-01-05T21:11:41.868Z,7.51
2023-01-05T21:14:11.343Z,7.53
2023-01-05T21:16:49.298Z,7.40
2023-01-05T21:19:21.859Z,7.38
2023-01-05T21:21:50.903Z,7.42
2023-01-05T21:24:17.672Z,7.37
2023-01-05T21:26:44.821Z,7.44
2023-01-05T21:29:16.195Z,7.39
2023-01-05T21:31:43.550Z,7.40
2023-01-05T21:34:11.860Z,7.31
2023-01-05T21:36:41.677Z,7.31
2023-01-05T21:39:09.417Z,7.26
2023-01-05T21:41:55.679Z,7.27
2023-01-05T21:44:22.823Z,7.22
2023-01-05T21:46:50.279Z,7.28
2023-01-05T21:49:17.794Z,7.21
2023-01-05T21:52:03.448Z,7.26
2023-01-05T21:54:49.133Z,7.21
2023-01-05T21:57:15.915Z,7.26
2023-01-05T21:59:43.428Z,7.27
2023-01-05T22:02:11.169Z,7.27
2023-01-05T22:04:37.804Z,7.31
2023-01-05T22:07:07.279Z,7.40
2023-01-05T22:09:37.451Z,7.39
2023-01-05T22:12:09.075Z,7.43
2023-01-05T22:14:37.199Z,7.47
2023-01-05T22:17:05.641Z,7.43
2023-01-05T22:19:32.359Z,7.55
2023-01-05T22:21:59.025Z,7.48
2023-01-05T22:24:25.767Z,7.49
2023-01-05T22:26:52.436Z,7.49
2023-01-05T22:29:19.439Z,7.53
2023-01-05T22:31:46.338Z,7.38
2023-01-05T22:34:13.116Z,7.54
2023-01-05T22:36:40.014Z,7.53
2023-01-05T22:39:06.696Z,7.49
2023-01-05T22:41:33.290Z,7.57
2023-01-05T22:44:02.283Z,7.53
2023-01-05T22:46:30.404Z,7.57
2023-01-05T22:48:57.958Z,7.61
2023-01-05T22:51:30.404Z,7.63
2023-01-05T22:53:58.256Z,7.60
2023-01-05T22:56:26.685Z,7.67
2023-01-05T22:58:55.367Z,7.64
2023-01-05T23:01:24.298Z,7.51
2023-01-05T23:03:52.389Z,7.66
2023-01-05T23:06:20.272Z,7.69
2023-01-05T23:08:48.848Z,7.71
2023-01-05T23:11:19.384Z,7.71
2023-01-05T23:13:47.079Z,7.79
2023-01-05T23:16:13.955Z,8.02
2023-01-05T23:18:41.156Z,8.23
2023-01-05T23:21:10.967Z,8.59
2023-01-05T23:23:40.619Z,9.14
2023-01-05T23:26:08.752Z,9.48
2023-01-05T23:28:36.182Z,9.71
2023-01-05T23:31:03.789Z,9.88
2023-01-05T23:33:33.282Z,10.04
2023-01-05T23:36:00.285Z,10.08
2023-01-05T23:38:27.475Z,10.23
2023-01-05T23:40:55.941Z,10.33
2023-01-05T23:43:25.168Z,10.33
2023-01-05T23:45:58.436Z,10.56
2023-01-05T23:48:25.074Z,10.58
2023-01-05T23:50:54.270Z,10.62
2023-01-05T23:53:20.983Z,10.64
2023-01-05T23:55:47.609Z,10.77
2023-01-05T23:58:14.244Z,10.79
